Time;durP1;ratioP1;P1;durP2;ratioP2;P2;SDS_P1;SDS_P2;PMS_P1;PMS_P2;Temp;Humidity;BMP_temperature;BMP_pressure;BME280_temperature;BME280_humidity;BME280_pressure;Samples;Min_cycle;Max_cycle;Signal;HPM_P1;HPM_P2
2023/01/31 00:01:16;;;;;;;8.45;0.77;;;4.70;81.70;;;;;;4998154;28;20055;-87
2023/01/31 00:03:46;;;;;;;12.27;1.67;;;4.70;81.80;;;;;;5023649;28;20145;-88
2023/01/31 00:06:16;;;;;;;10.27;1.13;;;4.60;81.80;;;;;;5007057;28;20583;-88
2023/01/31 00:08:47;;;;;;;12.13;1.50;;;4.60;81.70;;;;;;4994951;28;20054;-87
2023/01/31 00:11:18;;;;;;;11.50;1.13;;;4.50;81.60;;;;;;4994566;28;20543;-87
2023/01/31 00:13:46;;;;;;;10.32;1.27;;;4.50;81.70;;;;;;4994620;28;20683;-87
2023/01/31 00:16:16;;;;;;;4.63;0.63;;;4.50;81.70;;;;;;4995037;28;20050;-87
2023/01/31 00:18:44;;;;;;;15.90;2.00;;;4.50;81.70;;;;;;5011351;28;20523;-87
2023/01/31 00:21:12;;;;;;;7.90;1.43;;;4.50;81.70;;;;;;5001824;28;20148;-87
2023/01/31 00:23:40;;;;;;;12.65;1.33;;;4.50;81.70;;;;;;5011333;28;20047;-86
2023/01/31 00:26:11;;;;;;;6.78;0.93;;;4.40;81.80;;;;;;4991662;28;20062;-87
2023/01/31 00:28:39;;;;;;;10.32;1.13;;;4.40;82.10;;;;;;4994599;28;20539;-87
2023/01/31 00:31:08;;;;;;;7.10;1.13;;;4.40;82.10;;;;;;4989279;28;20042;-87
2023/01/31 00:33:35;;;;;;;9.23;0.73;;;4.30;82.30;;;;;;4978685;28;20575;-87
2023/01/31 00:36:04;;;;;;;9.82;1.00;;;4.30;82.40;;;;;;5008521;28;20169;-87
2023/01/31 00:38:32;;;;;;;9.65;1.10;;;4.30;82.50;;;;;;4984824;28;20054;-87
2023/01/31 00:40:59;;;;;;;8.40;0.85;;;4.20;82.40;;;;;;4983212;28;20055;-87
2023/01/31 00:43:29;;;;;;;10.75;0.93;;;4.20;82.40;;;;;;4994399;28;20528;-87
2023/01/31 00:45:57;;;;;;;9.57;0.97;;;4.20;82.60;;;;;;4994319;28;20575;-87
2023/01/31 00:48:25;;;;;;;14.65;1.48;;;4.20;82.70;;;;;;5010838;28;20487;-85
2023/01/31 00:50:52;;;;;;;12.63;1.60;;;4.20;82.50;;;;;;4994360;28;20054;-87
2023/01/31 00:53:22;;;;;;;4.53;0.40;;;4.10;82.60;;;;;;4994394;28;20090;-87
2023/01/31 00:55:50;;;;;;;10.15;1.10;;;4.10;82.50;;;;;;4997348;28;20456;-87
2023/01/31 00:58:19;;;;;;;6.37;0.97;;;4.10;82.60;;;;;;4994561;28;20051;-87
2023/01/31 01:00:47;;;;;;;10.98;1.40;;;4.10;82.70;;;;;;4993824;28;20054;-87
2023/01/31 01:03:15;;;;;;;9.18;1.08;;;4.10;82.70;;;;;;4994810;28;20514;-87
2023/01/31 01:05:44;;;;;;;9.82;1.42;;;4.00;82.70;;;;;;4994409;28;20091;-87
2023/01/31 01:08:11;;;;;;;6.38;0.50;;;4.00;82.70;;;;;;4994216;28;20050;-88
2023/01/31 01:10:39;;;;;;;6.03;0.87;;;4.00;82.60;;;;;;4994251;28;20520;-87
2023/01/31 01:13:06;;;;;;;7.80;0.93;;;4.00;82.70;;;;;;4986507;28;20157;-86
2023/01/31 01:15:33;;;;;;;9.02;1.20;;;3.90;82.70;;;;;;4976991;28;20127;-86
2023/01/31 01:18:01;;;;;;;9.40;1.30;;;3.90;82.60;;;;;;4974815;28;20051;-87
2023/01/31 01:20:28;;;;;;;10.52;0.70;;;3.90;82.70;;;;;;4977089;28;20126;-87
2023/01/31 01:22:56;;;;;;;9.40;0.80;;;3.90;82.60;;;;;;4989452;28;20137;-88
2023/01/31 01:25:23;;;;;;;12.10;1.30;;;3.90;82.50;;;;;;4991773;28;20081;-86
2023/01/31 01:27:52;;;;;;;8.98;0.90;;;3.90;82.70;;;;;;4992978;28;20171;-87
2023/01/31 01:30:20;;;;;;;11.45;1.40;;;3.90;82.70;;;;;;5008358;28;20077;-86
2023/01/31 01:32:47;;;;;;;10.70;1.75;;;3.90;82.60;;;;;;4993755;28;20046;-87
2023/01/31 01:35:16;;;;;;;9.03;1.13;;;3.90;82.50;;;;;;4993602;28;20058;-86
2023/01/31 01:37:44;;;;;;;12.57;1.58;;;3.90;82.40;;;;;;4994313;28;20073;-87
2023/01/31 01:40:12;;;;;;;11.73;1.60;;;3.90;82.40;;;;;;4990258;28;20054;-85
2023/01/31 01:42:39;;;;;;;10.23;1.60;;;3.90;82.40;;;;;;4990708;28;20137;-87
2023/01/31 01:45:15;;;;;;;9.07;1.17;;;3.90;82.40;;;;;;5009849;28;20579;-86
2023/01/31 01:47:46;;;;;;;9.57;1.37;;;3.90;82.40;;;;;;4992331;28;20051;-85
2023/01/31 01:50:20;;;;;;;13.20;1.20;;;3.90;82.30;;;;;;5009185;28;20121;-87
2023/01/31 01:52:50;;;;;;;12.45;1.25;;;3.90;82.30;;;;;;4993504;28;20156;-87
2023/01/31 01:55:23;;;;;;;9.27;0.70;;;3.90;82.40;;;;;;5009792;28;20062;-87
2023/01/31 01:57:53;;;;;;;10.98;1.63;;;3.90;82.30;;;;;;4993380;28;20640;-86
2023/01/31 02:00:23;;;;;;;8.63;0.80;;;4.00;82.30;;;;;;4989162;28;20050;-86
2023/01/31 02:02:56;;;;;;;11.70;1.20;;;4.00;82.30;;;;;;4974107;28;20135;-87
2023/01/31 02:05:30;;;;;;;8.55;0.98;;;4.00;82.30;;;;;;4992702;28;20055;-86
2023/01/31 02:07:58;;;;;;;8.93;0.77;;;4.00;82.20;;;;;;5006983;28;20485;-87
2023/01/31 02:10:30;;;;;;;10.68;1.35;;;4.00;82.30;;;;;;4980868;28;20524;-87
2023/01/31 02:12:58;;;;;;;13.23;1.20;;;4.00;82.20;;;;;;5009725;28;20053;-86
2023/01/31 02:15:29;;;;;;;8.80;1.70;;;4.00;82.20;;;;;;4993932;28;20069;-87
2023/01/31 02:17:57;;;;;;;8.55;1.23;;;4.00;82.30;;;;;;4989468;28;20055;-87
2023/01/31 02:21:02;;;;;;;10.38;1.08;;;4.00;82.30;;;;;;4983739;28;20054;-87
2023/01/31 02:24:02;;;;;;;12.93;0.93;;;4.00;82.20;;;;;;4988393;28;20050;-87
2023/01/31 02:27:09;;;;;;;9.07;0.90;;;4.00;82.20;;;;;;4989552;28;20081;-87
2023/01/31 02:29:59;;;;;;;8.20;1.23;;;4.00;82.20;;;;;;5005202;28;20081;-87
2023/01/31 02:32:51;;;;;;;13.00;1.15;;;4.00;82.20;;;;;;4999007;28;20064;-88
2023/01/31 02:35:28;;;;;;;14.35;1.30;;;4.00;82.30;;;;;;4988730;28;20050;-87
2023/01/31 02:38:07;;;;;;;12.77;1.17;;;4.10;82.20;;;;;;4990198;28;20501;-87
2023/01/31 02:40:41;;;;;;;9.43;1.27;;;4.10;82.10;;;;;;4982725;28;20510;-87
2023/01/31 02:43:13;;;;;;;14.45;1.45;;;4.10;82.10;;;;;;4993339;28;20655;-87
2023/01/31 02:46:05;;;;;;;9.90;1.42;;;4.10;82.10;;;;;;5009055;28;20398;-87
2023/01/31 02:48:45;;;;;;;13.68;1.63;;;4.10;82.10;;;;;;4992995;28;20050;-87
2023/01/31 02:51:16;;;;;;;7.72;0.98;;;4.10;82.00;;;;;;4992555;28;20801;-87
2023/01/31 02:53:52;;;;;;;11.30;1.20;;;4.10;82.00;;;;;;4992570;28;20137;-88
2023/01/31 02:56:24;;;;;;;15.18;1.17;;;4.10;82.00;;;;;;4992570;28;20141;-88
2023/01/31 02:58:57;;;;;;;11.43;1.10;;;4.10;82.10;;;;;;4976783;28;20133;-87
2023/01/31 03:01:30;;;;;;;10.23;1.23;;;4.10;82.20;;;;;;5005443;28;20073;-87
2023/01/31 03:04:03;;;;;;;9.32;1.20;;;4.10;82.20;;;;;;4992484;28;20051;-86
2023/01/31 03:06:53;;;;;;;10.40;1.03;;;4.10;82.40;;;;;;5008664;28;20720;-89
2023/01/31 03:09:30;;;;;;;12.05;1.20;;;4.10;82.50;;;;;;4992389;28;20113;-87
2023/01/31 03:12:06;;;;;;;15.93;1.42;;;4.10;82.60;;;;;;5008771;28;20528;-87
2023/01/31 03:14:45;;;;;;;9.75;1.30;;;4.10;82.70;;;;;;4990798;28;20054;-88
2023/01/31 03:17:31;;;;;;;12.10;1.17;;;4.10;83.00;;;;;;4992295;28;20117;-86
2023/01/31 03:20:08;;;;;;;10.30;1.07;;;4.10;82.90;;;;;;5008596;28;20205;-86
2023/01/31 03:22:39;;;;;;;9.73;1.10;;;4.10;83.10;;;;;;4985987;28;20435;-87
2023/01/31 03:25:11;;;;;;;9.73;1.10;;;4.10;83.50;;;;;;5008741;28;20121;-87
2023/01/31 03:27:43;;;;;;;11.63;1.40;;;4.10;83.50;;;;;;4986673;28;20504;-88
2023/01/31 03:30:17;;;;;;;11.43;1.20;;;4.20;83.70;;;;;;4979306;28;20046;-87
2023/01/31 03:32:53;;;;;;;12.10;1.40;;;4.20;83.80;;;;;;5005464;28;20129;-85
2023/01/31 03:35:27;;;;;;;11.82;1.23;;;4.20;83.80;;;;;;4990242;28;20050;-86
2023/01/31 03:38:00;;;;;;;10.23;1.50;;;4.20;83.60;;;;;;4992297;28;20062;-87
2023/01/31 03:40:33;;;;;;;10.73;1.48;;;4.20;83.50;;;;;;4991964;28;20130;-87
2023/01/31 03:43:07;;;;;;;8.60;1.30;;;4.20;83.50;;;;;;5008843;28;20082;-87
2023/01/31 03:45:44;;;;;;;13.50;1.60;;;4.30;83.40;;;;;;4992922;28;20520;-87
2023/01/31 03:48:16;;;;;;;12.20;1.40;;;4.30;83.40;;;;;;5012179;28;20054;-87
2023/01/31 03:50:51;;;;;;;13.18;1.17;;;4.30;83.40;;;;;;4994683;28;20256;-88
2023/01/31 03:53:24;;;;;;;11.75;1.40;;;4.30;83.50;;;;;;4995503;28;20055;-87
2023/01/31 03:55:56;;;;;;;12.35;1.25;;;4.30;83.50;;;;;;5011043;28;20057;-88
2023/01/31 03:58:29;;;;;;;10.63;1.40;;;4.20;83.60;;;;;;5011993;28;20353;-87
2023/01/31 04:00:59;;;;;;;14.02;1.67;;;4.30;83.70;;;;;;4995061;28;20425;-87
2023/01/31 04:03:32;;;;;;;10.65;1.25;;;4.30;83.80;;;;;;5011865;28;20062;-88
2023/01/31 04:06:00;;;;;;;10.32;1.80;;;4.30;83.90;;;;;;5011450;28;20050;-88
2023/01/31 04:08:28;;;;;;;13.98;2.08;;;4.30;84.00;;;;;;4993968;28;20054;-87
2023/01/31 04:11:05;;;;;;;13.10;1.50;;;4.30;84.00;;;;;;4980356;28;20941;-88
2023/01/31 04:13:34;;;;;;;9.50;1.27;;;4.40;84.10;;;;;;4975438;28;20062;-87
2023/01/31 04:16:01;;;;;;;14.18;1.90;;;4.40;84.40;;;;;;4989348;28;20509;-88
2023/01/31 04:18:28;;;;;;;15.40;2.20;;;4.40;84.40;;;;;;4994815;28;20054;-87
2023/01/31 04:20:55;;;;;;;14.43;1.90;;;4.40;84.50;;;;;;4994713;28;20117;-87
2023/01/31 04:23:27;;;;;;;10.20;1.17;;;4.50;84.70;;;;;;5011795;28;20055;-88
2023/01/31 04:25:54;;;;;;;11.10;1.77;;;4.50;84.70;;;;;;5014932;28;20058;-87
2023/01/31 04:28:23;;;;;;;15.55;2.22;;;4.50;84.70;;;;;;4995029;28;20112;-87
2023/01/31 04:30:53;;;;;;;10.38;1.30;;;4.50;84.90;;;;;;4994313;28;20046;-88
2023/01/31 04:33:20;;;;;;;13.32;1.65;;;4.50;85.00;;;;;;4994931;28;20046;-87
2023/01/31 04:35:48;;;;;;;17.83;2.00;;;4.50;85.30;;;;;;4994324;28;20544;-87
2023/01/31 04:38:15;;;;;;;12.63;1.85;;;4.60;85.30;;;;;;5011203;28;20681;-87
2023/01/31 04:40:44;;;;;;;11.70;1.92;;;4.70;85.50;;;;;;4994292;28;20058;-88
2023/01/31 04:43:13;;;;;;;12.05;1.83;;;4.70;85.50;;;;;;5009755;28;20050;-86
2023/01/31 04:45:40;;;;;;;12.63;2.20;;;4.70;85.50;;;;;;5011052;28;20528;-88
2023/01/31 04:48:07;;;;;;;10.33;1.40;;;4.70;85.80;;;;;;5011133;28;20090;-87
2023/01/31 04:50:35;;;;;;;19.02;3.08;;;4.80;85.90;;;;;;4994472;28;20101;-87
2023/01/31 04:53:03;;;;;;;11.05;1.77;;;4.90;85.90;;;;;;5011211;28;20158;-86
2023/01/31 04:55:30;;;;;;;16.30;2.10;;;4.90;86.00;;;;;;4994041;28;20089;-86
2023/01/31 04:57:59;;;;;;;15.35;1.98;;;4.90;86.10;;;;;;4992914;28;20050;-87
2023/01/31 05:00:29;;;;;;;7.53;1.53;;;5.00;86.20;;;;;;5009095;28;20074;-87
2023/01/31 05:02:56;;;;;;;18.45;2.97;;;5.00;86.30;;;;;;5010710;28;20108;-88
2023/01/31 05:05:23;;;;;;;14.98;2.35;;;5.00;86.50;;;;;;4994016;28;20082;-87
2023/01/31 05:07:50;;;;;;;15.23;2.28;;;5.00;86.50;;;;;;5010402;28;20051;-86
2023/01/31 05:10:18;;;;;;;15.70;2.72;;;5.10;86.50;;;;;;4993672;28;20113;-87
2023/01/31 05:12:45;;;;;;;16.97;2.50;;;5.10;86.50;;;;;;5010313;28;20568;-84
2023/01/31 05:15:13;;;;;;;16.13;2.10;;;5.10;86.60;;;;;;5000750;28;20058;-87
2023/01/31 05:17:42;;;;;;;16.38;1.95;;;5.10;86.50;;;;;;4985274;28;20723;-88
2023/01/31 05:20:12;;;;;;;14.52;2.72;;;5.30;86.60;;;;;;5009773;28;20109;-88
2023/01/31 05:22:40;;;;;;;17.33;2.28;;;5.30;86.50;;;;;;5009606;28;20050;-85
2023/01/31 05:25:08;;;;;;;13.83;2.47;;;5.30;86.50;;;;;;4993330;28;20593;-87
2023/01/31 05:27:36;;;;;;;17.13;3.10;;;5.30;86.40;;;;;;4994173;28;20058;-87
2023/01/31 05:30:04;;;;;;;15.10;2.85;;;5.30;86.40;;;;;;4993784;28;20047;-87
2023/01/31 05:32:32;;;;;;;15.23;3.13;;;5.40;86.30;;;;;;5012281;28;20054;-90
2023/01/31 05:35:00;;;;;;;13.02;2.90;;;5.50;86.20;;;;;;4991298;28;20141;-86
2023/01/31 05:37:29;;;;;;;16.67;2.77;;;5.50;86.10;;;;;;5010221;28;20058;-87
2023/01/31 05:39:56;;;;;;;11.48;2.05;;;5.50;86.10;;;;;;5010219;28;20058;-88
2023/01/31 05:42:25;;;;;;;16.60;2.65;;;5.50;86.00;;;;;;5010215;28;20100;-88
2023/01/31 05:44:52;;;;;;;17.58;3.17;;;5.50;86.00;;;;;;4993513;28;20056;-86
2023/01/31 05:47:20;;;;;;;15.32;2.83;;;5.50;86.00;;;;;;4993473;28;20054;-85
2023/01/31 05:49:48;;;;;;;21.47;3.33;;;5.50;86.00;;;;;;4993791;28;20420;-86
2023/01/31 05:52:15;;;;;;;18.77;3.45;;;5.50;85.90;;;;;;4991253;28;20057;-86
2023/01/31 05:54:43;;;;;;;18.73;3.15;;;5.50;86.00;;;;;;5026341;28;20086;-87
2023/01/31 05:57:10;;;;;;;18.30;3.65;;;5.50;85.90;;;;;;4993517;28;20065;-87
2023/01/31 05:59:37;;;;;;;19.13;3.20;;;5.50;85.80;;;;;;4993050;28;20052;-88
2023/01/31 06:02:05;;;;;;;14.40;2.20;;;5.50;85.80;;;;;;4982584;28;20042;-86
2023/01/31 06:04:32;;;;;;;13.15;2.63;;;5.50;85.90;;;;;;4978796;28;20051;-87
2023/01/31 06:07:02;;;;;;;18.10;3.17;;;5.50;85.90;;;;;;4995242;28;20054;-87
2023/01/31 06:09:29;;;;;;;19.55;4.45;;;5.50;86.10;;;;;;4992113;28;20058;-87
2023/01/31 06:11:56;;;;;;;17.20;3.20;;;5.50;86.20;;;;;;4990605;28;20541;-87
2023/01/31 06:14:24;;;;;;;16.40;3.30;;;5.50;86.30;;;;;;5010807;28;20050;-85
2023/01/31 06:16:51;;;;;;;16.15;3.55;;;5.40;86.30;;;;;;4993997;28;20538;-87
2023/01/31 06:19:20;;;;;;;15.00;2.72;;;5.40;86.40;;;;;;4993915;28;20101;-88
2023/01/31 06:21:47;;;;;;;18.65;3.70;;;5.40;86.50;;;;;;4993356;28;20070;-86
2023/01/31 06:24:19;;;;;;;20.30;3.33;;;5.40;86.50;;;;;;4994330;28;20054;-90
2023/01/31 06:26:46;;;;;;;18.63;4.10;;;5.50;86.80;;;;;;4995829;28;20099;-88
2023/01/31 06:29:13;;;;;;;23.67;4.78;;;5.50;86.70;;;;;;4994259;28;20583;-87
2023/01/31 06:31:44;;;;;;;19.38;3.60;;;5.50;86.80;;;;;;5010253;28;20050;-88
2023/01/31 06:34:12;;;;;;;21.60;4.63;;;5.50;86.80;;;;;;4994248;28;20074;-88
2023/01/31 06:36:42;;;;;;;19.67;4.70;;;5.50;87.00;;;;;;4994721;28;20054;-87
2023/01/31 06:39:10;;;;;;;21.63;4.63;;;5.50;87.00;;;;;;4994091;28;20039;-89
2023/01/31 06:41:39;;;;;;;18.02;3.13;;;5.50;86.90;;;;;;4994441;28;20081;-85
2023/01/31 06:44:06;;;;;;;17.83;4.30;;;5.50;87.00;;;;;;4993929;28;20055;-88
2023/01/31 06:46:34;;;;;;;20.23;4.45;;;5.50;87.00;;;;;;4993550;28;20058;-88
2023/01/31 06:49:03;;;;;;;18.35;3.60;;;5.50;87.20;;;;;;4993619;28;20055;-88
2023/01/31 06:51:31;;;;;;;21.10;5.30;;;5.50;87.10;;;;;;4993018;28;20063;-88
2023/01/31 06:53:58;;;;;;;15.98;4.38;;;5.50;87.20;;;;;;4992833;28;20109;-86
2023/01/31 06:56:25;;;;;;;21.60;3.90;;;5.50;87.20;;;;;;5010519;28;20062;-89
2023/01/31 06:58:54;;;;;;;16.02;3.20;;;5.50;87.30;;;;;;5009633;28;20053;-89
2023/01/31 07:01:23;;;;;;;16.00;3.20;;;5.50;87.40;;;;;;5009938;28;20058;-87
2023/01/31 07:03:50;;;;;;;19.60;4.17;;;5.50;87.40;;;;;;5011881;28;20059;-86
2023/01/31 07:06:53;;;;;;;19.20;3.67;;;5.50;87.40;;;;;;5010874;28;20491;-88
2023/01/31 07:09:20;;;;;;;21.73;4.50;;;5.60;87.60;;;;;;4993429;28;20519;-87
2023/01/31 07:11:47;;;;;;;20.02;3.80;;;5.60;87.30;;;;;;5013958;28;20042;-87
2023/01/31 07:14:16;;;;;;;18.80;3.58;;;5.60;87.30;;;;;;5028744;28;20061;-86
2023/01/31 07:16:43;;;;;;;18.63;4.33;;;5.70;87.30;;;;;;4974098;28;20121;-87
2023/01/31 07:19:11;;;;;;;18.40;3.85;;;5.70;87.30;;;;;;4990198;28;20054;-85
2023/01/31 07:21:38;;;;;;;20.50;3.63;;;5.70;87.20;;;;;;5007682;28;20050;-87
2023/01/31 07:24:05;;;;;;;13.82;3.03;;;5.70;87.20;;;;;;4977921;28;20054;-88
2023/01/31 07:26:33;;;;;;;15.40;2.92;;;5.80;87.20;;;;;;4995073;28;20050;-88
2023/01/31 07:29:01;;;;;;;16.07;3.20;;;5.80;86.90;;;;;;4996150;28;20086;-88
2023/01/31 07:31:29;;;;;;;16.58;3.58;;;5.80;86.90;;;;;;5012651;28;20105;-89
2023/01/31 07:33:56;;;;;;;18.25;3.38;;;5.80;86.80;;;;;;5011929;28;20058;-88
2023/01/31 07:36:25;;;;;;;18.13;3.35;;;5.90;86.60;;;;;;4996176;28;20077;-87
2023/01/31 07:38:55;;;;;;;15.55;2.88;;;5.90;86.50;;;;;;4995398;28;20101;-87
2023/01/31 07:41:23;;;;;;;15.70;2.77;;;5.90;86.50;;;;;;4995911;28;20051;-86
2023/01/31 07:43:50;;;;;;;14.90;2.85;;;6.00;86.30;;;;;;5012638;28;20055;-85
2023/01/31 07:46:18;;;;;;;16.67;3.30;;;6.00;86.30;;;;;;4985576;28;20074;-84
2023/01/31 07:48:46;;;;;;;14.10;2.40;;;6.00;86.30;;;;;;5006448;28;20062;-84
2023/01/31 07:51:13;;;;;;;18.50;3.67;;;6.00;86.30;;;;;;5009446;28;20070;-83
2023/01/31 07:53:42;;;;;;;9.90;1.90;;;6.00;86.30;;;;;;4999860;28;20050;-84
2023/01/31 07:56:12;;;;;;;17.63;3.40;;;6.10;86.20;;;;;;4994735;28;20073;-88
2023/01/31 07:58:41;;;;;;;13.38;2.33;;;6.10;86.20;;;;;;4994535;28;20058;-85
2023/01/31 08:03:59;;;;;;;13.05;1.50;;;6.20;86.10;;;;;;5013665;28;20097;-85
2023/01/31 08:06:30;;;;;;;12.40;2.80;;;6.20;86.10;;;;;;5032725;28;20055;-86
2023/01/31 08:08:58;;;;;;;18.45;3.30;;;6.30;86.00;;;;;;5002164;28;20046;-88
2023/01/31 08:11:27;;;;;;;11.95;2.30;;;6.30;85.90;;;;;;5019715;28;20066;-86
2023/01/31 08:13:54;;;;;;;15.93;3.25;;;6.30;86.00;;;;;;5011159;28;20129;-88
2023/01/31 08:16:21;;;;;;;16.33;3.33;;;6.30;85.90;;;;;;5012169;28;20580;-89
2023/01/31 08:18:49;;;;;;;14.97;3.00;;;6.30;86.10;;;;;;5010367;28;20081;-89
2023/01/31 08:21:18;;;;;;;9.68;2.13;;;6.30;86.10;;;;;;5026533;28;20093;-87
2023/01/31 08:23:45;;;;;;;15.20;2.80;;;6.30;86.20;;;;;;4999267;28;20456;-85
2023/01/31 08:26:15;;;;;;;15.13;2.83;;;6.30;86.40;;;;;;5017790;28;20118;-83
2023/01/31 08:28:42;;;;;;;14.13;2.50;;;6.40;86.40;;;;;;5001022;28;20046;-81
2023/01/31 08:31:13;;;;;;;14.97;3.00;;;6.40;86.40;;;;;;4992639;28;20046;-82
2023/01/31 08:33:40;;;;;;;14.35;2.15;;;6.40;86.40;;;;;;5018982;28;20050;-80
2023/01/31 08:36:12;;;;;;;10.43;2.70;;;6.40;86.60;;;;;;5029229;28;20056;-82
2023/01/31 08:38:40;;;;;;;10.63;2.63;;;6.40;86.60;;;;;;5006687;28;20146;-84
2023/01/31 08:41:08;;;;;;;16.23;3.15;;;6.40;86.70;;;;;;4993954;28;20121;-88
2023/01/31 08:43:37;;;;;;;16.17;2.43;;;6.40;86.70;;;;;;5002738;28;20606;-88
2023/01/31 08:46:04;;;;;;;9.60;2.20;;;6.40;86.70;;;;;;5005106;28;20065;-82
2023/01/31 08:48:33;;;;;;;13.88;2.35;;;6.40;86.60;;;;;;4989377;28;20059;-84
2023/01/31 08:51:01;;;;;;;12.63;2.72;;;6.40;86.70;;;;;;5000914;28;20124;-84
2023/01/31 08:53:29;;;;;;;14.63;3.45;;;6.40;86.60;;;;;;5001293;28;20053;-91
2023/01/31 08:56:00;;;;;;;14.90;2.67;;;6.40;86.80;;;;;;5015566;28;20056;-89
2023/01/31 08:58:27;;;;;;;8.73;2.08;;;6.40;86.70;;;;;;5024944;28;21070;-89
2023/01/31 09:00:54;;;;;;;8.93;1.98;;;6.50;86.60;;;;;;5011452;28;20062;-81
2023/01/31 09:03:21;;;;;;;11.30;2.33;;;6.50;86.60;;;;;;5019555;28;20081;-82
2023/01/31 09:05:49;;;;;;;11.85;2.00;;;6.50;86.50;;;;;;4990493;28;20969;-80
2023/01/31 09:08:16;;;;;;;14.97;2.97;;;6.50;86.30;;;;;;5005155;28;20059;-81
2023/01/31 09:10:43;;;;;;;8.98;2.20;;;6.50;86.20;;;;;;5015348;28;20088;-80
2023/01/31 09:13:11;;;;;;;11.50;1.98;;;6.60;86.00;;;;;;5009494;28;20051;-81
2023/01/31 09:15:38;;;;;;;10.40;1.77;;;6.60;86.00;;;;;;4989800;28;20059;-81
2023/01/31 09:18:06;;;;;;;12.43;2.47;;;6.50;86.10;;;;;;4989924;28;20054;-84
2023/01/31 09:20:33;;;;;;;14.10;2.60;;;6.60;86.00;;;;;;4985976;28;20056;-83
2023/01/31 09:23:00;;;;;;;11.82;2.53;;;6.60;86.00;;;;;;4992631;28;20132;-80
2023/01/31 09:25:27;;;;;;;10.75;2.03;;;6.60;86.00;;;;;;5007266;28;20186;-79
2023/01/31 09:27:54;;;;;;;11.80;2.50;;;6.60;85.90;;;;;;4996709;28;20090;-81
2023/01/31 09:30:23;;;;;;;15.10;2.33;;;6.60;85.80;;;;;;4991818;28;20042;-81
2023/01/31 09:32:50;;;;;;;11.07;2.20;;;6.60;85.90;;;;;;5001069;28;20555;-79
2023/01/31 09:35:18;;;;;;;10.00;2.03;;;6.70;85.60;;;;;;5006057;28;20695;-82
2023/01/31 09:37:45;;;;;;;8.88;1.67;;;6.70;85.60;;;;;;5008142;28;20058;-83
2023/01/31 09:40:21;;;;;;;9.15;1.70;;;6.70;85.50;;;;;;5008178;28;20046;-83
2023/01/31 09:42:49;;;;;;;7.65;1.65;;;6.70;85.60;;;;;;5007489;28;20137;-82
2023/01/31 09:45:26;;;;;;;11.73;1.70;;;6.70;85.50;;;;;;5000413;28;20050;-83
2023/01/31 09:47:59;;;;;;;11.85;2.38;;;6.80;85.50;;;;;;5007244;28;20554;-83
2023/01/31 09:50:34;;;;;;;14.63;2.00;;;6.80;85.60;;;;;;5007905;28;20086;-82
2023/01/31 09:53:01;;;;;;;14.18;2.25;;;6.80;85.50;;;;;;4999241;28;20072;-84
2023/01/31 09:55:36;;;;;;;13.75;2.75;;;6.80;85.70;;;;;;4996669;28;20181;-85
2023/01/31 09:58:12;;;;;;;9.90;2.00;;;6.90;85.70;;;;;;4983050;28;20081;-83
2023/01/31 10:00:47;;;;;;;14.10;1.60;;;6.90;85.60;;;;;;4990297;28;20137;-84
2023/01/31 10:03:40;;;;;;;16.00;2.92;;;7.00;85.40;;;;;;5003182;28;20133;-83
2023/01/31 10:06:14;;;;;;;14.40;2.83;;;7.00;85.30;;;;;;4963745;28;20528;-83
2023/01/31 10:08:47;;;;;;;12.55;2.20;;;7.00;85.50;;;;;;4990519;28;20180;-83
2023/01/31 10:11:16;;;;;;;13.10;2.53;;;7.00;85.40;;;;;;5006875;28;20126;-84
2023/01/31 10:13:49;;;;;;;6.93;1.52;;;7.00;85.30;;;;;;5008320;28;20865;-83
2023/01/31 10:16:25;;;;;;;9.38;1.80;;;7.00;85.40;;;;;;5045143;22;20110;-84
2023/01/31 10:18:59;;;;;;;9.50;1.83;;;7.00;85.40;;;;;;5028299;28;20057;-84
2023/01/31 10:21:32;;;;;;;8.38;1.90;;;7.00;85.50;;;;;;5028700;28;20485;-83
2023/01/31 10:24:05;;;;;;;14.10;2.77;;;7.00;85.40;;;;;;5028068;28;20712;-84
2023/01/31 10:26:36;;;;;;;15.20;2.95;;;7.10;85.50;;;;;;5027640;28;20057;-84
2023/01/31 10:29:10;;;;;;;10.88;2.10;;;7.10;85.40;;;;;;5027999;28;20502;-83
2023/01/31 10:31:44;;;;;;;16.23;3.22;;;7.20;85.30;;;;;;5011481;28;20058;-84
2023/01/31 10:34:16;;;;;;;14.98;2.65;;;7.20;85.20;;;;;;5027954;28;20078;-84
2023/01/31 10:36:48;;;;;;;7.57;1.67;;;7.20;85.20;;;;;;5028024;28;20518;-84
2023/01/31 10:39:22;;;;;;;12.65;2.75;;;7.20;85.20;;;;;;5011118;28;20057;-84
2023/01/31 10:42:05;;;;;;;14.70;2.53;;;7.20;85.40;;;;;;5012627;28;20474;-84
2023/01/31 10:44:41;;;;;;;11.30;2.38;;;7.20;85.50;;;;;;5024572;28;20073;-82
2023/01/31 10:47:13;;;;;;;9.80;2.47;;;7.20;85.80;;;;;;5024423;28;20145;-85
2023/01/31 10:49:42;;;;;;;13.53;2.87;;;7.20;86.30;;;;;;4994893;28;20499;-84
2023/01/31 10:52:27;;;;;;;19.30;3.50;;;7.20;86.50;;;;;;5010616;28;20054;-84
2023/01/31 10:55:03;;;;;;;9.70;2.38;;;7.20;87.00;;;;;;5010896;28;20057;-84
2023/01/31 10:57:32;;;;;;;13.27;2.60;;;7.20;87.10;;;;;;5030106;28;20073;-83
2023/01/31 10:59:59;;;;;;;9.23;1.15;;;7.20;87.30;;;;;;5030233;28;20054;-83
2023/01/31 11:02:29;;;;;;;13.93;3.47;;;7.20;87.70;;;;;;5030686;28;20149;-82
2023/01/31 11:04:59;;;;;;;14.00;2.72;;;7.20;87.90;;;;;;5031093;28;20140;-84
2023/01/31 11:07:29;;;;;;;14.25;2.95;;;7.20;88.10;;;;;;5049256;28;20072;-88
2023/01/31 11:09:57;;;;;;;12.50;1.92;;;7.20;88.30;;;;;;5012143;28;20057;-86
2023/01/31 11:12:42;;;;;;;20.23;3.75;;;7.20;88.60;;;;;;5028326;28;20136;-87
2023/01/31 11:15:17;;;;;;;18.97;4.10;;;7.20;88.80;;;;;;5040569;28;20068;-87
2023/01/31 11:17:47;;;;;;;19.30;3.47;;;7.20;89.00;;;;;;5018825;28;20081;-88
2023/01/31 11:20:24;;;;;;;14.55;3.53;;;7.20;89.00;;;;;;5018009;28;20057;-87
2023/01/31 11:22:52;;;;;;;15.25;2.42;;;7.20;89.20;;;;;;5012166;28;20064;-85
2023/01/31 11:25:22;;;;;;;15.20;2.85;;;7.10;89.40;;;;;;5020088;28;20053;-87
2023/01/31 11:27:52;;;;;;;13.93;2.80;;;7.20;89.60;;;;;;5031602;28;20544;-84
2023/01/31 11:30:25;;;;;;;19.15;3.20;;;7.10;89.70;;;;;;5014992;28;20140;-85
2023/01/31 11:32:53;;;;;;;15.07;3.05;;;7.20;89.70;;;;;;5022638;28;20050;-86
2023/01/31 11:35:27;;;;;;;12.48;1.98;;;7.20;89.90;;;;;;5031001;28;20057;-87
2023/01/31 11:37:56;;;;;;;13.25;3.22;;;7.20;90.00;;;;;;5030791;28;20145;-85
2023/01/31 11:40:30;;;;;;;12.00;2.53;;;7.20;90.10;;;;;;5047412;28;20069;-87
2023/01/31 11:42:59;;;;;;;13.48;2.65;;;7.20;90.00;;;;;;5031429;28;20053;-87
2023/01/31 11:45:30;;;;;;;7.32;1.63;;;7.20;90.00;;;;;;5029950;28;20147;-87
2023/01/31 11:48:07;;;;;;;8.50;1.80;;;7.20;89.90;;;;;;5029792;28;20061;-86
2023/01/31 11:50:37;;;;;;;13.77;2.90;;;7.20;89.80;;;;;;5028619;28;20052;-86
2023/01/31 11:53:15;;;;;;;14.37;2.70;;;7.20;90.00;;;;;;4999631;28;20060;-85
2023/01/31 11:55:44;;;;;;;14.52;2.67;;;7.20;90.10;;;;;;5014252;28;20089;-87
2023/01/31 11:58:18;;;;;;;15.18;2.03;;;7.20;90.00;;;;;;5031103;28;20053;-88
2023/01/31 12:00:54;;;;;;;12.18;2.30;;;7.20;89.80;;;;;;5031612;28;20077;-86
2023/01/31 12:03:25;;;;;;;14.98;2.30;;;7.20;89.70;;;;;;5029229;28;20154;-88
2023/01/31 12:06:01;;;;;;;8.07;1.50;;;7.20;89.60;;;;;;5013639;28;20504;-89
2023/01/31 12:08:31;;;;;;;15.88;2.65;;;7.20;89.50;;;;;;5013487;28;20054;-88
2023/01/31 12:10:59;;;;;;;11.18;1.83;;;7.20;89.50;;;;;;5022666;28;20092;-87
2023/01/31 12:13:27;;;;;;;7.25;1.30;;;7.20;89.40;;;;;;5016982;28;20053;-87
2023/01/31 12:15:58;;;;;;;9.88;1.85;;;7.20;89.50;;;;;;5001076;28;20057;-82
2023/01/31 12:18:42;;;;;;;15.00;2.47;;;7.30;89.40;;;;;;5015947;28;20145;-82
2023/01/31 12:21:14;;;;;;;15.75;2.78;;;7.30;89.50;;;;;;5005203;28;20054;-84
2023/01/31 12:23:52;;;;;;;11.10;2.83;;;7.30;89.30;;;;;;5013680;28;20041;-90
2023/01/31 12:26:30;;;;;;;6.95;1.27;;;7.40;89.30;;;;;;5017470;28;20459;-89
2023/01/31 12:29:18;;;;;;;10.38;1.73;;;7.40;89.20;;;;;;5021328;28;20060;-88
2023/01/31 12:32:02;;;;;;;10.43;1.93;;;7.40;89.10;;;;;;4998979;28;20057;-87
2023/01/31 12:34:50;;;;;;;9.23;1.40;;;7.50;89.00;;;;;;4994660;28;20105;-86
2023/01/31 12:37:33;;;;;;;11.43;2.33;;;7.50;88.90;;;;;;5014405;28;20125;-85
2023/01/31 12:40:22;;;;;;;9.18;2.00;;;7.50;88.80;;;;;;5009955;28;20140;-83
2023/01/31 12:42:57;;;;;;;10.98;1.73;;;7.60;88.70;;;;;;5040089;28;20053;-84
2023/01/31 12:45:50;;;;;;;6.83;1.27;;;7.60;88.50;;;;;;5021872;28;20046;-84
2023/01/31 12:48:49;;;;;;;6.03;1.42;;;7.70;88.30;;;;;;5017612;28;20116;-83
2023/01/31 12:51:32;;;;;;;15.23;2.58;;;7.80;88.10;;;;;;5018718;28;20090;-84
2023/01/31 12:54:09;;;;;;;11.75;2.22;;;7.80;88.00;;;;;;5028134;28;20081;-85
2023/01/31 12:57:01;;;;;;;8.38;1.45;;;7.80;88.00;;;;;;5009813;28;20050;-86
2023/01/31 12:59:42;;;;;;;12.50;2.00;;;7.80;87.90;;;;;;4999857;28;20054;-87
2023/01/31 13:02:27;;;;;;;12.68;2.47;;;8.00;87.50;;;;;;5018849;28;20049;-88
2023/01/31 13:05:01;;;;;;;13.40;2.10;;;8.00;87.30;;;;;;5013916;28;20116;-86
2023/01/31 13:07:37;;;;;;;10.32;1.70;;;8.00;87.20;;;;;;5004101;28;20912;-83
2023/01/31 13:10:17;;;;;;;12.73;1.52;;;8.10;87.00;;;;;;5009310;28;20152;-84
2023/01/31 13:12:46;;;;;;;9.33;1.97;;;8.10;86.90;;;;;;5006626;28;20141;-85